Poio, Spain
Current Conditions -  °F | °C
As of 1:00 PM on Sunday 23 Nov 2014 (Local Time) from LEVX Reporting Station
Broken Clouds Broken Clouds  
Wind Chill: 54°   Ceiling: 5000
Heat Index: 54°   Visibility: 6mi
Dew Point: 50°   Wind: 13mph
Humidity: 88%   Direction: 20°NNE
Pressure: 29.88"   Gusts: NA
Location:  42.44°N, 8.71°W
Report Text: LEVX 231200Z 02011KT 350V070 9999 SCT029 BKN050 12/10 Q1012 TEMPO 3000 -RA
Loading
Personal Weather Stations






























Interactive Weather Map New forecast layout! Learn more

10-Day Weather Forecast

Advertisements
Track Severe Weather on mobile